sensor_id;sensor_type;location;lat;lon;timestamp;P1;durP1;ratioP1;P2;durP2;ratioP2
57071;SDS011;42956;51.366;11.298;2023-09-07T00:02:17;10.13;;;6.20;;
57071;SDS011;42956;51.366;11.298;2023-09-07T00:05:01;8.18;;;5.78;;
57071;SDS011;42956;51.366;11.298;2023-09-07T00:07:31;7.93;;;6.03;;
57071;SDS011;42956;51.366;11.298;2023-09-07T00:10:02;10.35;;;6.47;;
57071;SDS011;42956;51.366;11.298;2023-09-07T00:12:35;7.90;;;6.45;;
57071;SDS011;42956;51.366;11.298;2023-09-07T00:15:06;7.05;;;6.10;;
57071;SDS011;42956;51.366;11.298;2023-09-07T00:17:37;9.98;;;6.40;;
57071;SDS011;42956;51.366;11.298;2023-09-07T00:20:08;8.85;;;6.43;;
57071;SDS011;42956;51.366;11.298;2023-09-07T00:22:41;10.00;;;6.53;;
57071;SDS011;42956;51.366;11.298;2023-09-07T00:25:11;11.48;;;7.15;;
57071;SDS011;42956;51.366;11.298;2023-09-07T00:27:43;8.35;;;7.22;;
57071;SDS011;42956;51.366;11.298;2023-09-07T00:30:14;9.15;;;6.25;;
57071;SDS011;42956;51.366;11.298;2023-09-07T00:32:43;12.25;;;7.57;;
57071;SDS011;42956;51.366;11.298;2023-09-07T00:35:13;8.90;;;6.32;;
57071;SDS011;42956;51.366;11.298;2023-09-07T00:37:43;12.10;;;7.22;;
57071;SDS011;42956;51.366;11.298;2023-09-07T00:40:13;12.77;;;7.40;;
57071;SDS011;42956;51.366;11.298;2023-09-07T00:42:45;12.02;;;7.25;;
57071;SDS011;42956;51.366;11.298;2023-09-07T00:45:15;6.93;;;6.05;;
57071;SDS011;42956;51.366;11.298;2023-09-07T00:47:45;8.98;;;6.85;;
57071;SDS011;42956;51.366;11.298;2023-09-07T00:50:15;9.63;;;7.05;;
57071;SDS011;42956;51.366;11.298;2023-09-07T00:52:46;9.23;;;6.22;;
57071;SDS011;42956;51.366;11.298;2023-09-07T00:55:16;10.95;;;6.45;;
57071;SDS011;42956;51.366;11.298;2023-09-07T00:57:49;10.65;;;7.00;;
57071;SDS011;42956;51.366;11.298;2023-09-07T01:00:19;10.52;;;6.78;;
57071;SDS011;42956;51.366;11.298;2023-09-07T01:02:49;14.18;;;6.85;;
57071;SDS011;42956;51.366;11.298;2023-09-07T01:05:19;10.50;;;7.25;;
57071;SDS011;42956;51.366;11.298;2023-09-07T01:07:51;10.20;;;7.15;;
57071;SDS011;42956;51.366;11.298;2023-09-07T01:10:23;15.40;;;7.03;;
57071;SDS011;42956;51.366;11.298;2023-09-07T01:12:55;13.25;;;6.75;;
57071;SDS011;42956;51.366;11.298;2023-09-07T01:15:25;11.88;;;6.38;;
57071;SDS011;42956;51.366;11.298;2023-09-07T01:17:55;14.48;;;6.57;;
57071;SDS011;42956;51.366;11.298;2023-09-07T01:20:46;8.40;;;5.82;;
57071;SDS011;42956;51.366;11.298;2023-09-07T01:23:19;9.98;;;6.25;;
57071;SDS011;42956;51.366;11.298;2023-09-07T01:28:19;8.40;;;5.25;;
57071;SDS011;42956;51.366;11.298;2023-09-07T01:30:50;10.73;;;6.07;;
57071;SDS011;42956;51.366;11.298;2023-09-07T01:33:20;11.77;;;5.85;;
57071;SDS011;42956;51.366;11.298;2023-09-07T01:35:50;8.20;;;6.05;;
57071;SDS011;42956;51.366;11.298;2023-09-07T01:38:23;7.80;;;5.75;;
57071;SDS011;42956;51.366;11.298;2023-09-07T01:40:53;9.98;;;6.40;;
57071;SDS011;42956;51.366;11.298;2023-09-07T01:43:23;9.77;;;5.82;;
57071;SDS011;42956;51.366;11.298;2023-09-07T01:45:53;12.02;;;6.55;;
57071;SDS011;42956;51.366;11.298;2023-09-07T01:48:23;8.80;;;6.43;;
57071;SDS011;42956;51.366;11.298;2023-09-07T01:50:53;10.90;;;6.25;;
57071;SDS011;42956;51.366;11.298;2023-09-07T01:53:25;10.27;;;6.63;;
57071;SDS011;42956;51.366;11.298;2023-09-07T01:55:55;8.90;;;7.03;;
57071;SDS011;42956;51.366;11.298;2023-09-07T01:58:26;9.57;;;6.18;;
57071;SDS011;42956;51.366;11.298;2023-09-07T02:00:57;9.48;;;5.80;;
57071;SDS011;42956;51.366;11.298;2023-09-07T02:03:27;9.43;;;6.18;;
57071;SDS011;42956;51.366;11.298;2023-09-07T02:05:57;9.68;;;6.95;;
57071;SDS011;42956;51.366;11.298;2023-09-07T02:08:30;10.20;;;6.10;;
57071;SDS011;42956;51.366;11.298;2023-09-07T02:10:59;10.25;;;6.57;;
57071;SDS011;42956;51.366;11.298;2023-09-07T02:13:29;11.07;;;6.90;;
57071;SDS011;42956;51.366;11.298;2023-09-07T02:16:02;13.25;;;7.13;;
57071;SDS011;42956;51.366;11.298;2023-09-07T02:18:32;13.00;;;6.80;;
57071;SDS011;42956;51.366;11.298;2023-09-07T02:21:02;9.43;;;6.40;;
57071;SDS011;42956;51.366;11.298;2023-09-07T02:23:35;9.38;;;6.55;;
57071;SDS011;42956;51.366;11.298;2023-09-07T02:26:06;9.10;;;6.25;;
57071;SDS011;42956;51.366;11.298;2023-09-07T02:28:36;7.85;;;5.50;;
57071;SDS011;42956;51.366;11.298;2023-09-07T02:31:06;12.50;;;7.05;;
57071;SDS011;42956;51.366;11.298;2023-09-07T02:33:36;14.50;;;6.85;;
57071;SDS011;42956;51.366;11.298;2023-09-07T02:36:06;12.23;;;7.07;;
57071;SDS011;42956;51.366;11.298;2023-09-07T02:38:39;9.20;;;6.50;;
57071;SDS011;42956;51.366;11.298;2023-09-07T02:41:09;8.60;;;7.07;;
57071;SDS011;42956;51.366;11.298;2023-09-07T02:43:39;9.60;;;6.40;;
57071;SDS011;42956;51.366;11.298;2023-09-07T02:46:08;8.55;;;6.85;;
57071;SDS011;42956;51.366;11.298;2023-09-07T02:48:38;11.45;;;6.80;;
57071;SDS011;42956;51.366;11.298;2023-09-07T02:51:08;10.45;;;6.78;;
57071;SDS011;42956;51.366;11.298;2023-09-07T02:53:41;10.95;;;6.82;;
57071;SDS011;42956;51.366;11.298;2023-09-07T02:56:11;11.45;;;7.78;;
57071;SDS011;42956;51.366;11.298;2023-09-07T02:58:41;13.07;;;7.30;;
57071;SDS011;42956;51.366;11.298;2023-09-07T03:01:12;13.40;;;7.00;;
57071;SDS011;42956;51.366;11.298;2023-09-07T03:03:46;10.88;;;6.50;;
57071;SDS011;42956;51.366;11.298;2023-09-07T03:06:16;13.98;;;6.88;;
57071;SDS011;42956;51.366;11.298;2023-09-07T03:08:49;11.40;;;6.43;;
57071;SDS011;42956;51.366;11.298;2023-09-07T03:11:19;9.75;;;6.30;;
57071;SDS011;42956;51.366;11.298;2023-09-07T03:13:49;10.30;;;7.13;;
57071;SDS011;42956;51.366;11.298;2023-09-07T03:16:19;13.38;;;7.55;;
57071;SDS011;42956;51.366;11.298;2023-09-07T03:18:49;9.88;;;7.30;;
57071;SDS011;42956;51.366;11.298;2023-09-07T03:21:20;8.70;;;7.57;;
57071;SDS011;42956;51.366;11.298;2023-09-07T03:23:55;12.48;;;6.10;;
57071;SDS011;42956;51.366;11.298;2023-09-07T03:26:24;8.18;;;6.55;;
57071;SDS011;42956;51.366;11.298;2023-09-07T03:28:57;7.60;;;6.10;;
57071;SDS011;42956;51.366;11.298;2023-09-07T03:31:27;8.10;;;6.63;;
57071;SDS011;42956;51.366;11.298;2023-09-07T03:33:57;8.77;;;6.90;;
57071;SDS011;42956;51.366;11.298;2023-09-07T03:36:26;14.52;;;6.75;;
57071;SDS011;42956;51.366;11.298;2023-09-07T03:38:59;9.27;;;6.60;;
57071;SDS011;42956;51.366;11.298;2023-09-07T03:41:29;10.77;;;6.45;;
57071;SDS011;42956;51.366;11.298;2023-09-07T03:43:59;9.65;;;6.65;;
57071;SDS011;42956;51.366;11.298;2023-09-07T03:46:28;13.52;;;7.15;;
57071;SDS011;42956;51.366;11.298;2023-09-07T03:48:58;11.30;;;6.82;;
57071;SDS011;42956;51.366;11.298;2023-09-07T03:51:28;11.85;;;6.70;;
57071;SDS011;42956;51.366;11.298;2023-09-07T03:54:01;11.25;;;6.65;;
57071;SDS011;42956;51.366;11.298;2023-09-07T03:56:31;8.10;;;6.00;;
57071;SDS011;42956;51.366;11.298;2023-09-07T03:59:01;13.05;;;7.25;;
57071;SDS011;42956;51.366;11.298;2023-09-07T04:01:31;13.38;;;6.53;;
57071;SDS011;42956;51.366;11.298;2023-09-07T04:04:01;9.75;;;6.45;;
57071;SDS011;42956;51.366;11.298;2023-09-07T04:06:31;9.52;;;6.55;;
57071;SDS011;42956;51.366;11.298;2023-09-07T04:09:03;10.02;;;6.70;;
57071;SDS011;42956;51.366;11.298;2023-09-07T04:11:33;10.73;;;7.03;;
57071;SDS011;42956;51.366;11.298;2023-09-07T04:14:03;7.15;;;5.75;;
57071;SDS011;42956;51.366;11.298;2023-09-07T04:16:33;10.85;;;6.45;;
57071;SDS011;42956;51.366;11.298;2023-09-07T04:19:07;10.20;;;6.75;;
57071;SDS011;42956;51.366;11.298;2023-09-07T04:21:37;11.45;;;6.88;;
57071;SDS011;42956;51.366;11.298;2023-09-07T04:24:10;11.10;;;6.63;;
57071;SDS011;42956;51.366;11.298;2023-09-07T04:26:40;24.02;;;6.90;;
57071;SDS011;42956;51.366;11.298;2023-09-07T04:29:10;11.70;;;6.90;;
57071;SDS011;42956;51.366;11.298;2023-09-07T04:31:40;9.60;;;7.18;;
57071;SDS011;42956;51.366;11.298;2023-09-07T04:34:10;12.98;;;7.43;;
57071;SDS011;42956;51.366;11.298;2023-09-07T04:36:40;8.50;;;6.70;;
57071;SDS011;42956;51.366;11.298;2023-09-07T04:39:13;12.95;;;7.05;;
57071;SDS011;42956;51.366;11.298;2023-09-07T04:41:43;10.18;;;7.72;;
57071;SDS011;42956;51.366;11.298;2023-09-07T04:44:13;12.60;;;6.88;;
57071;SDS011;42956;51.366;11.298;2023-09-07T04:46:43;10.02;;;6.70;;
57071;SDS011;42956;51.366;11.298;2023-09-07T04:49:13;11.38;;;7.60;;
57071;SDS011;42956;51.366;11.298;2023-09-07T04:51:43;11.15;;;7.40;;
57071;SDS011;42956;51.366;11.298;2023-09-07T04:54:16;10.48;;;7.90;;
57071;SDS011;42956;51.366;11.298;2023-09-07T04:56:46;12.75;;;6.40;;
57071;SDS011;42956;51.366;11.298;2023-09-07T04:59:16;9.93;;;6.90;;
57071;SDS011;42956;51.366;11.298;2023-09-07T05:01:46;12.15;;;6.88;;
57071;SDS011;42956;51.366;11.298;2023-09-07T05:04:17;10.32;;;7.55;;
57071;SDS011;42956;51.366;11.298;2023-09-07T05:06:47;12.48;;;6.90;;
57071;SDS011;42956;51.366;11.298;2023-09-07T05:09:19;12.82;;;7.18;;
57071;SDS011;42956;51.366;11.298;2023-09-07T05:11:50;13.98;;;7.72;;
57071;SDS011;42956;51.366;11.298;2023-09-07T05:14:20;8.23;;;6.32;;
57071;SDS011;42956;51.366;11.298;2023-09-07T05:16:50;11.95;;;7.53;;
57071;SDS011;42956;51.366;11.298;2023-09-07T05:19:22;15.82;;;8.02;;
57071;SDS011;42956;51.366;11.298;2023-09-07T05:21:52;10.25;;;6.82;;
57071;SDS011;42956;51.366;11.298;2023-09-07T05:24:24;14.15;;;7.20;;
57071;SDS011;42956;51.366;11.298;2023-09-07T05:26:54;14.63;;;7.65;;
57071;SDS011;42956;51.366;11.298;2023-09-07T05:29:24;10.35;;;6.88;;
57071;SDS011;42956;51.366;11.298;2023-09-07T05:31:54;11.93;;;8.07;;
57071;SDS011;42956;51.366;11.298;2023-09-07T05:34:28;11.23;;;7.03;;
57071;SDS011;42956;51.366;11.298;2023-09-07T05:36:58;9.63;;;7.03;;
57071;SDS011;42956;51.366;11.298;2023-09-07T05:39:30;8.82;;;6.30;;
57071;SDS011;42956;51.366;11.298;2023-09-07T05:42:00;30.95;;;8.25;;
57071;SDS011;42956;51.366;11.298;2023-09-07T05:44:30;9.70;;;7.50;;
57071;SDS011;42956;51.366;11.298;2023-09-07T05:47:00;14.23;;;7.20;;
57071;SDS011;42956;51.366;11.298;2023-09-07T05:49:30;11.23;;;8.00;;
57071;SDS011;42956;51.366;11.298;2023-09-07T05:52:00;9.43;;;8.18;;
57071;SDS011;42956;51.366;11.298;2023-09-07T05:54:36;15.70;;;8.30;;
57071;SDS011;42956;51.366;11.298;2023-09-07T05:57:06;15.75;;;8.98;;
57071;SDS011;42956;51.366;11.298;2023-09-07T05:59:36;11.65;;;7.95;;
57071;SDS011;42956;51.366;11.298;2023-09-07T06:02:06;14.48;;;7.88;;
57071;SDS011;42956;51.366;11.298;2023-09-07T06:04:36;12.68;;;8.23;;
57071;SDS011;42956;51.366;11.298;2023-09-07T06:07:06;14.77;;;7.82;;
57071;SDS011;42956;51.366;11.298;2023-09-07T06:09:39;11.98;;;8.32;;
57071;SDS011;42956;51.366;11.298;2023-09-07T06:12:09;9.48;;;7.25;;
57071;SDS011;42956;51.366;11.298;2023-09-07T06:14:39;13.15;;;9.68;;
57071;SDS011;42956;51.366;11.298;2023-09-07T06:17:11;16.25;;;8.32;;
57071;SDS011;42956;51.366;11.298;2023-09-07T06:19:41;12.75;;;8.07;;
57071;SDS011;42956;51.366;11.298;2023-09-07T06:22:11;10.02;;;8.60;;
57071;SDS011;42956;51.366;11.298;2023-09-07T06:24:44;11.10;;;8.85;;
57071;SDS011;42956;51.366;11.298;2023-09-07T06:27:14;10.20;;;7.97;;
57071;SDS011;42956;51.366;11.298;2023-09-07T06:29:44;11.35;;;8.27;;
57071;SDS011;42956;51.366;11.298;2023-09-07T06:32:14;20.75;;;7.70;;
57071;SDS011;42956;51.366;11.298;2023-09-07T06:34:45;12.48;;;7.43;;
57071;SDS011;42956;51.366;11.298;2023-09-07T06:37:16;10.55;;;6.80;;
57071;SDS011;42956;51.366;11.298;2023-09-07T06:39:48;12.60;;;7.93;;
57071;SDS011;42956;51.366;11.298;2023-09-07T06:42:19;11.23;;;8.38;;
57071;SDS011;42956;51.366;11.298;2023-09-07T06:44:48;17.10;;;8.55;;
57071;SDS011;42956;51.366;11.298;2023-09-07T06:47:19;11.95;;;7.90;;
57071;SDS011;42956;51.366;11.298;2023-09-07T06:49:48;11.57;;;9.10;;
57071;SDS011;42956;51.366;11.298;2023-09-07T06:52:18;13.05;;;8.90;;
57071;SDS011;42956;51.366;11.298;2023-09-07T06:54:53;14.95;;;9.60;;
57071;SDS011;42956;51.366;11.298;2023-09-07T06:57:23;13.32;;;8.85;;
57071;SDS011;42956;51.366;11.298;2023-09-07T06:59:53;19.42;;;9.98;;
57071;SDS011;42956;51.366;11.298;2023-09-07T07:02:23;14.23;;;9.35;;
57071;SDS011;42956;51.366;11.298;2023-09-07T07:04:53;13.48;;;9.20;;
57071;SDS011;42956;51.366;11.298;2023-09-07T07:07:23;12.75;;;8.73;;
57071;SDS011;42956;51.366;11.298;2023-09-07T07:09:56;14.77;;;8.70;;
57071;SDS011;42956;51.366;11.298;2023-09-07T07:12:28;17.05;;;8.77;;
57071;SDS011;42956;51.366;11.298;2023-09-07T07:15:04;15.18;;;10.00;;
57071;SDS011;42956;51.366;11.298;2023-09-07T07:17:34;10.13;;;8.57;;
57071;SDS011;42956;51.366;11.298;2023-09-07T07:20:05;21.55;;;8.57;;
57071;SDS011;42956;51.366;11.298;2023-09-07T07:22:35;9.88;;;8.35;;
57071;SDS011;42956;51.366;11.298;2023-09-07T07:25:08;11.20;;;8.43;;
57071;SDS011;42956;51.366;11.298;2023-09-07T07:27:38;11.90;;;9.07;;
57071;SDS011;42956;51.366;11.298;2023-09-07T07:30:09;12.90;;;8.90;;
57071;SDS011;42956;51.366;11.298;2023-09-07T07:32:39;14.70;;;10.38;;
57071;SDS011;42956;51.366;11.298;2023-09-07T07:35:09;14.35;;;9.48;;
57071;SDS011;42956;51.366;11.298;2023-09-07T07:37:39;14.00;;;10.82;;
57071;SDS011;42956;51.366;11.298;2023-09-07T07:40:12;17.55;;;9.73;;
57071;SDS011;42956;51.366;11.298;2023-09-07T07:42:42;12.05;;;9.00;;
57071;SDS011;42956;51.366;11.298;2023-09-07T07:45:13;13.85;;;10.43;;
57071;SDS011;42956;51.366;11.298;2023-09-07T07:47:48;13.70;;;9.68;;
57071;SDS011;42956;51.366;11.298;2023-09-07T07:50:18;13.88;;;9.45;;
57071;SDS011;42956;51.366;11.298;2023-09-07T07:52:48;10.93;;;9.20;;
57071;SDS011;42956;51.366;11.298;2023-09-07T07:55:21;10.75;;;8.70;;
57071;SDS011;42956;51.366;11.298;2023-09-07T07:57:51;14.48;;;11.15;;
57071;SDS011;42956;51.366;11.298;2023-09-07T08:00:21;14.05;;;10.23;;
57071;SDS011;42956;51.366;11.298;2023-09-07T08:02:51;14.57;;;10.02;;
57071;SDS011;42956;51.366;11.298;2023-09-07T08:05:20;12.98;;;10.25;;
57071;SDS011;42956;51.366;11.298;2023-09-07T08:07:50;16.75;;;10.07;;
57071;SDS011;42956;51.366;11.298;2023-09-07T08:10:23;11.75;;;10.32;;
57071;SDS011;42956;51.366;11.298;2023-09-07T08:13:00;18.83;;;9.73;;
57071;SDS011;42956;51.366;11.298;2023-09-07T08:15:31;16.75;;;10.23;;
57071;SDS011;42956;51.366;11.298;2023-09-07T08:18:01;11.05;;;9.95;;
57071;SDS011;42956;51.366;11.298;2023-09-07T08:20:31;12.40;;;9.60;;
57071;SDS011;42956;51.366;11.298;2023-09-07T08:23:02;11.48;;;9.50;;
57071;SDS011;42956;51.366;11.298;2023-09-07T08:25:37;9.65;;;8.40;;
57071;SDS011;42956;51.366;11.298;2023-09-07T08:28:11;8.45;;;7.57;;
57071;SDS011;42956;51.366;11.298;2023-09-07T08:30:43;16.42;;;9.60;;
57071;SDS011;42956;51.366;11.298;2023-09-07T08:33:13;11.43;;;10.23;;
57071;SDS011;42956;51.366;11.298;2023-09-07T08:35:43;10.93;;;9.55;;
57071;SDS011;42956;51.366;11.298;2023-09-07T08:38:13;12.75;;;9.38;;
57071;SDS011;42956;51.366;11.298;2023-09-07T08:40:46;12.27;;;9.10;;
57071;SDS011;42956;51.366;11.298;2023-09-07T08:43:16;12.32;;;8.90;;
57071;SDS011;42956;51.366;11.298;2023-09-07T08:45:49;13.65;;;9.48;;
57071;SDS011;42956;51.366;11.298;2023-09-07T08:48:21;14.32;;;9.38;;
57071;SDS011;42956;51.366;11.298;2023-09-07T08:50:51;13.10;;;9.35;;
57071;SDS011;42956;51.366;11.298;2023-09-07T08:53:21;16.05;;;10.35;;
57071;SDS011;42956;51.366;11.298;2023-09-07T08:55:55;15.82;;;8.35;;
57071;SDS011;42956;51.366;11.298;2023-09-07T08:58:25;9.70;;;8.60;;
57071;SDS011;42956;51.366;11.298;2023-09-07T09:00:55;11.23;;;8.52;;
57071;SDS011;42956;51.366;11.298;2023-09-07T09:03:33;12.45;;;7.82;;
57071;SDS011;42956;51.366;11.298;2023-09-07T09:06:04;12.05;;;8.38;;
57071;SDS011;42956;51.366;11.298;2023-09-07T09:08:43;9.48;;;7.90;;
57071;SDS011;42956;51.366;11.298;2023-09-07T09:11:17;9.18;;;7.80;;
57071;SDS011;42956;51.366;11.298;2023-09-07T09:13:47;12.80;;;7.13;;
57071;SDS011;42956;51.366;11.298;2023-09-07T09:16:17;11.50;;;7.65;;
57071;SDS011;42956;51.366;11.298;2023-09-07T09:18:48;9.77;;;7.90;;
57071;SDS011;42956;51.366;11.298;2023-09-07T09:21:19;9.43;;;7.38;;
57071;SDS011;42956;51.366;11.298;2023-09-07T09:23:50;12.07;;;8.02;;
57071;SDS011;42956;51.366;11.298;2023-09-07T09:26:23;8.55;;;6.78;;
57071;SDS011;42956;51.366;11.298;2023-09-07T09:28:56;10.30;;;7.85;;
57071;SDS011;42956;51.366;11.298;2023-09-07T09:31:26;8.57;;;7.22;;
57071;SDS011;42956;51.366;11.298;2023-09-07T09:33:56;12.00;;;7.28;;
57071;SDS011;42956;51.366;11.298;2023-09-07T09:36:32;8.02;;;7.22;;
57071;SDS011;42956;51.366;11.298;2023-09-07T09:39:02;10.75;;;7.53;;
57071;SDS011;42956;51.366;11.298;2023-09-07T09:41:35;9.10;;;7.07;;
57071;SDS011;42956;51.366;11.298;2023-09-07T09:44:06;11.25;;;7.15;;
57071;SDS011;42956;51.366;11.298;2023-09-07T09:46:37;10.63;;;7.78;;
57071;SDS011;42956;51.366;11.298;2023-09-07T09:49:07;7.03;;;6.22;;
57071;SDS011;42956;51.366;11.298;2023-09-07T09:51:38;11.63;;;7.13;;
57071;SDS011;42956;51.366;11.298;2023-09-07T09:54:10;10.03;;;7.57;;
57071;SDS011;42956;51.366;11.298;2023-09-07T09:56:44;11.13;;;6.55;;
57071;SDS011;42956;51.366;11.298;2023-09-07T09:59:14;7.70;;;6.25;;
57071;SDS011;42956;51.366;11.298;2023-09-07T10:01:45;7.00;;;6.30;;
57071;SDS011;42956;51.366;11.298;2023-09-07T10:04:17;11.35;;;7.47;;
57071;SDS011;42956;51.366;11.298;2023-09-07T10:06:50;8.75;;;6.30;;
57071;SDS011;42956;51.366;11.298;2023-09-07T10:09:23;13.88;;;6.43;;
57071;SDS011;42956;51.366;11.298;2023-09-07T10:11:57;10.75;;;6.60;;
57071;SDS011;42956;51.366;11.298;2023-09-07T10:14:37;12.43;;;6.68;;
57071;SDS011;42956;51.366;11.298;2023-09-07T10:17:07;7.53;;;6.50;;
57071;SDS011;42956;51.366;11.298;2023-09-07T10:19:37;8.05;;;6.60;;
57071;SDS011;42956;51.366;11.298;2023-09-07T10:22:20;9.00;;;6.90;;
57071;SDS011;42956;51.366;11.298;2023-09-07T10:24:56;9.57;;;6.63;;
57071;SDS011;42956;51.366;11.298;2023-09-07T10:27:35;12.30;;;6.80;;
57071;SDS011;42956;51.366;11.298;2023-09-07T10:30:09;9.40;;;6.80;;
57071;SDS011;42956;51.366;11.298;2023-09-07T10:32:39;8.68;;;7.38;;
57071;SDS011;42956;51.366;11.298;2023-09-07T10:35:16;8.30;;;6.45;;
57071;SDS011;42956;51.366;11.298;2023-09-07T10:37:46;7.80;;;6.25;;
57071;SDS011;42956;51.366;11.298;2023-09-07T10:40:19;8.02;;;6.05;;
57071;SDS011;42956;51.366;11.298;2023-09-07T10:42:52;6.70;;;5.82;;
57071;SDS011;42956;51.366;11.298;2023-09-07T10:45:31;7.80;;;5.63;;
57071;SDS011;42956;51.366;11.298;2023-09-07T10:48:01;7.78;;;5.50;;
57071;SDS011;42956;51.366;11.298;2023-09-07T10:50:41;6.25;;;5.40;;
57071;SDS011;42956;51.366;11.298;2023-09-07T10:53:11;7.95;;;5.93;;
57071;SDS011;42956;51.366;11.298;2023-09-07T10:55:41;6.00;;;5.20;;
57071;SDS011;42956;51.366;11.298;2023-09-07T10:58:15;6.57;;;5.75;;
57071;SDS011;42956;51.366;11.298;2023-09-07T11:00:57;12.05;;;6.88;;
57071;SDS011;42956;51.366;11.298;2023-09-07T11:03:27;7.65;;;4.90;;
57071;SDS011;42956;51.366;11.298;2023-09-07T11:05:59;11.10;;;6.07;;
57071;SDS011;42956;51.366;11.298;2023-09-07T11:08:32;8.70;;;5.85;;
57071;SDS011;42956;51.366;11.298;2023-09-07T11:11:02;7.22;;;5.68;;
57071;SDS011;42956;51.366;11.298;2023-09-07T11:13:38;9.57;;;6.53;;
57071;SDS011;42956;51.366;11.298;2023-09-07T11:16:08;9.95;;;5.70;;
57071;SDS011;42956;51.366;11.298;2023-09-07T11:18:39;6.85;;;5.40;;
57071;SDS011;42956;51.366;11.298;2023-09-07T11:21:09;7.13;;;5.65;;
57071;SDS011;42956;51.366;11.298;2023-09-07T11:23:39;8.73;;;5.72;;
57071;SDS011;42956;51.366;11.298;2023-09-07T11:26:10;8.63;;;5.65;;
57071;SDS011;42956;51.366;11.298;2023-09-07T11:28:44;6.50;;;5.68;;
57071;SDS011;42956;51.366;11.298;2023-09-07T11:31:17;6.88;;;5.50;;
57071;SDS011;42956;51.366;11.298;2023-09-07T11:33:47;6.43;;;5.40;;
57071;SDS011;42956;51.366;11.298;2023-09-07T11:36:18;6.28;;;5.43;;
57071;SDS011;42956;51.366;11.298;2023-09-07T11:38:51;10.77;;;5.45;;
57071;SDS011;42956;51.366;11.298;2023-09-07T11:41:21;7.25;;;4.80;;
57071;SDS011;42956;51.366;11.298;2023-09-07T11:43:53;13.00;;;6.10;;
57071;SDS011;42956;51.366;11.298;2023-09-07T11:46:23;8.18;;;5.80;;
57071;SDS011;42956;51.366;11.298;2023-09-07T11:48:53;6.75;;;5.43;;
57071;SDS011;42956;51.366;11.298;2023-09-07T11:51:23;6.03;;;5.43;;
57071;SDS011;42956;51.366;11.298;2023-09-07T11:53:53;7.22;;;5.13;;
57071;SDS011;42956;51.366;11.298;2023-09-07T11:56:23;11.65;;;5.38;;
57071;SDS011;42956;51.366;11.298;2023-09-07T11:58:56;9.82;;;5.18;;
57071;SDS011;42956;51.366;11.298;2023-09-07T12:03:57;12.07;;;5.57;;
57071;SDS011;42956;51.366;11.298;2023-09-07T12:06:27;7.00;;;4.85;;
57071;SDS011;42956;51.366;11.298;2023-09-07T12:09:00;6.85;;;5.35;;
57071;SDS011;42956;51.366;11.298;2023-09-07T12:11:30;6.68;;;5.07;;
57071;SDS011;42956;51.366;11.298;2023-09-07T12:14:03;8.18;;;5.03;;
57071;SDS011;42956;51.366;11.298;2023-09-07T12:16:33;7.72;;;5.35;;
57071;SDS011;42956;51.366;11.298;2023-09-07T12:19:03;9.43;;;5.05;;
57071;SDS011;42956;51.366;11.298;2023-09-07T12:21:33;10.23;;;5.03;;
57071;SDS011;42956;51.366;11.298;2023-09-07T12:24:04;6.63;;;4.97;;
57071;SDS011;42956;51.366;11.298;2023-09-07T12:26:34;6.40;;;5.07;;
57071;SDS011;42956;51.366;11.298;2023-09-07T12:29:06;11.52;;;6.15;;
57071;SDS011;42956;51.366;11.298;2023-09-07T12:31:37;9.38;;;6.03;;
57071;SDS011;42956;51.366;11.298;2023-09-07T12:34:07;7.78;;;5.60;;
57071;SDS011;42956;51.366;11.298;2023-09-07T12:36:38;10.32;;;4.95;;
57071;SDS011;42956;51.366;11.298;2023-09-07T12:39:08;6.18;;;5.00;;
57071;SDS011;42956;51.366;11.298;2023-09-07T12:41:39;10.48;;;4.65;;
57071;SDS011;42956;51.366;11.298;2023-09-07T12:44:12;9.60;;;5.00;;
57071;SDS011;42956;51.366;11.298;2023-09-07T12:46:42;7.60;;;5.00;;
57071;SDS011;42956;51.366;11.298;2023-09-07T12:49:12;6.57;;;4.60;;
57071;SDS011;42956;51.366;11.298;2023-09-07T12:51:42;10.30;;;4.70;;
57071;SDS011;42956;51.366;11.298;2023-09-07T12:54:12;10.60;;;4.78;;
57071;SDS011;42956;51.366;11.298;2023-09-07T12:56:42;7.93;;;4.68;;
57071;SDS011;42956;51.366;11.298;2023-09-07T12:59:14;10.68;;;4.95;;
57071;SDS011;42956;51.366;11.298;2023-09-07T13:01:44;6.55;;;4.32;;
57071;SDS011;42956;51.366;11.298;2023-09-07T13:04:14;5.78;;;4.70;;
57071;SDS011;42956;51.366;11.298;2023-09-07T13:06:44;8.32;;;4.90;;
57071;SDS011;42956;51.366;11.298;2023-09-07T13:09:14;7.78;;;4.85;;
57071;SDS011;42956;51.366;11.298;2023-09-07T13:11:44;8.23;;;4.93;;
57071;SDS011;42956;51.366;11.298;2023-09-07T13:14:17;11.30;;;4.82;;
57071;SDS011;42956;51.366;11.298;2023-09-07T13:16:47;6.20;;;4.47;;
57071;SDS011;42956;51.366;11.298;2023-09-07T13:19:19;5.50;;;4.15;;
57071;SDS011;42956;51.366;11.298;2023-09-07T13:21:49;5.38;;;4.00;;
57071;SDS011;42956;51.366;11.298;2023-09-07T13:24:20;7.15;;;4.03;;
57071;SDS011;42956;51.366;11.298;2023-09-07T13:26:50;4.40;;;3.88;;
57071;SDS011;42956;51.366;11.298;2023-09-07T13:29:23;7.72;;;4.57;;
57071;SDS011;42956;51.366;11.298;2023-09-07T13:31:51;6.40;;;4.22;;
57071;SDS011;42956;51.366;11.298;2023-09-07T13:34:22;7.97;;;4.15;;
57071;SDS011;42956;51.366;11.298;2023-09-07T13:36:51;5.63;;;4.00;;
57071;SDS011;42956;51.366;11.298;2023-09-07T13:39:22;8.82;;;4.43;;
57071;SDS011;42956;51.366;11.298;2023-09-07T13:41:52;9.45;;;4.20;;
57071;SDS011;42956;51.366;11.298;2023-09-07T13:44:24;9.10;;;4.40;;
57071;SDS011;42956;51.366;11.298;2023-09-07T13:46:54;5.15;;;3.90;;
57071;SDS011;42956;51.366;11.298;2023-09-07T13:49:24;5.65;;;4.07;;
57071;SDS011;42956;51.366;11.298;2023-09-07T13:51:55;6.40;;;3.97;;
57071;SDS011;42956;51.366;11.298;2023-09-07T13:54:24;5.60;;;4.50;;
57071;SDS011;42956;51.366;11.298;2023-09-07T13:56:57;6.05;;;4.18;;
57071;SDS011;42956;51.366;11.298;2023-09-07T13:59:30;5.72;;;4.13;;
57071;SDS011;42956;51.366;11.298;2023-09-07T14:02:01;6.30;;;4.63;;
57071;SDS011;42956;51.366;11.298;2023-09-07T14:04:31;4.97;;;4.28;;
57071;SDS011;42956;51.366;11.298;2023-09-07T14:07:01;11.15;;;4.88;;
57071;SDS011;42956;51.366;11.298;2023-09-07T14:09:31;7.10;;;4.03;;
57071;SDS011;42956;51.366;11.298;2023-09-07T14:12:01;5.88;;;4.03;;
57071;SDS011;42956;51.366;11.298;2023-09-07T14:14:34;9.07;;;4.22;;
57071;SDS011;42956;51.366;11.298;2023-09-07T14:17:04;6.30;;;4.13;;
57071;SDS011;42956;51.366;11.298;2023-09-07T14:19:34;6.90;;;4.07;;
57071;SDS011;42956;51.366;11.298;2023-09-07T14:22:04;6.60;;;3.97;;
57071;SDS011;42956;51.366;11.298;2023-09-07T14:24:34;7.22;;;4.47;;
57071;SDS011;42956;51.366;11.298;2023-09-07T14:27:04;5.35;;;4.47;;
57071;SDS011;42956;51.366;11.298;2023-09-07T14:29:38;6.32;;;4.05;;
57071;SDS011;42956;51.366;11.298;2023-09-07T14:32:11;7.13;;;4.63;;
57071;SDS011;42956;51.366;11.298;2023-09-07T14:34:41;5.53;;;4.40;;
57071;SDS011;42956;51.366;11.298;2023-09-07T14:37:11;5.22;;;4.43;;
57071;SDS011;42956;51.366;11.298;2023-09-07T14:39:40;6.57;;;3.70;;
57071;SDS011;42956;51.366;11.298;2023-09-07T14:42:14;5.97;;;3.40;;
57071;SDS011;42956;51.366;11.298;2023-09-07T14:44:49;8.73;;;4.30;;
57071;SDS011;42956;51.366;11.298;2023-09-07T14:47:20;5.57;;;4.43;;
57071;SDS011;42956;51.366;11.298;2023-09-07T14:49:52;4.88;;;4.07;;
57071;SDS011;42956;51.366;11.298;2023-09-07T14:52:22;6.32;;;4.85;;
57071;SDS011;42956;51.366;11.298;2023-09-07T14:54:54;7.60;;;4.20;;